createdAt,value
2023-05-24T00:02:20.137Z,13.98
2023-05-24T00:04:46.618Z,13.65
2023-05-24T00:07:13.730Z,13.24
2023-05-24T00:09:40.235Z,13.63
2023-05-24T00:12:06.867Z,13.58
2023-05-24T00:14:33.456Z,13.98
2023-05-24T00:17:00.252Z,13.79
2023-05-24T00:19:27.402Z,13.49
2023-05-24T00:21:53.955Z,13.24
2023-05-24T00:24:21.638Z,13.07
2023-05-24T00:26:48.563Z,13.14
2023-05-24T00:29:15.331Z,13.50
2023-05-24T00:31:42.176Z,13.07
2023-05-24T00:34:08.706Z,12.60
2023-05-24T00:36:35.199Z,13.13
2023-05-24T00:39:01.740Z,13.25
2023-05-24T00:41:28.299Z,13.43
2023-05-24T00:43:54.845Z,13.22
2023-05-24T00:46:24.384Z,13.41
2023-05-24T00:48:51.029Z,13.36
2023-05-24T00:51:17.870Z,13.37
2023-05-24T00:53:46.335Z,13.27
2023-05-24T00:56:16.753Z,12.94
2023-05-24T00:58:43.873Z,13.22
2023-05-24T01:01:10.560Z,13.08
2023-05-24T01:03:37.581Z,13.19
2023-05-24T01:06:07.326Z,13.26
2023-05-24T01:08:40.320Z,13.25
2023-05-24T01:11:32.040Z,13.09
2023-05-24T01:14:16.338Z,13.07
2023-05-24T01:16:56.510Z,12.39
2023-05-24T01:19:45.317Z,12.86
2023-05-24T01:22:27.098Z,13.02
2023-05-24T01:25:03.842Z,12.70
2023-05-24T01:27:36.513Z,12.48
2023-05-24T01:30:04.754Z,12.54
2023-05-24T01:32:32.192Z,12.06
2023-05-24T01:34:58.964Z,12.34
2023-05-24T01:37:26.781Z,12.29
2023-05-24T01:39:53.645Z,12.02
2023-05-24T01:42:52.919Z,12.62
2023-05-24T01:45:35.143Z,12.55
2023-05-24T01:48:42.048Z,11.99
2023-05-24T01:51:12.060Z,12.22
2023-05-24T01:53:47.020Z,12.51
2023-05-24T01:56:14.379Z,12.07
2023-05-24T01:58:42.352Z,12.37
2023-05-24T02:01:09.507Z,11.89
2023-05-24T02:03:38.296Z,12.32
2023-05-24T02:06:05.532Z,12.27
2023-05-24T02:08:35.227Z,11.65
2023-05-24T02:11:02.707Z,11.09
2023-05-24T02:13:31.596Z,11.89
2023-05-24T02:15:58.563Z,11.80
2023-05-24T02:18:25.425Z,11.91
2023-05-24T02:20:52.370Z,12.21
2023-05-24T02:23:18.997Z,12.21
2023-05-24T02:25:45.792Z,11.74
2023-05-24T02:28:12.509Z,11.76
2023-05-24T02:30:40.095Z,12.30
2023-05-24T02:33:06.868Z,11.35
2023-05-24T02:35:34.520Z,12.16
2023-05-24T02:38:02.532Z,11.30
2023-05-24T02:40:29.305Z,11.89
2023-05-24T02:42:55.977Z,11.37
2023-05-24T02:45:22.573Z,11.68
2023-05-24T02:47:49.295Z,12.09
2023-05-24T02:50:16.198Z,9.98
2023-05-24T02:52:44.848Z,12.12
2023-05-24T02:55:18.365Z,12.09
2023-05-24T02:57:44.853Z,12.06
2023-05-24T03:00:18.580Z,11.58
2023-05-24T03:02:47.658Z,11.13
2023-05-24T03:05:17.400Z,11.84
2023-05-24T03:07:43.954Z,11.52
2023-05-24T03:10:11.544Z,12.39
2023-05-24T03:12:38.838Z,12.25
2023-05-24T03:15:05.924Z,11.65
2023-05-24T03:17:32.597Z,12.24
2023-05-24T03:19:59.205Z,12.26
2023-05-24T03:22:25.766Z,11.40
2023-05-24T03:24:52.466Z,12.17
2023-05-24T03:27:19.209Z,10.91
2023-05-24T03:29:45.897Z,12.34
2023-05-24T03:32:12.532Z,11.75
2023-05-24T03:34:39.045Z,11.52
2023-05-24T03:37:05.612Z,11.92
2023-05-24T03:39:32.193Z,10.96
2023-05-24T03:41:58.794Z,11.38
2023-05-24T03:44:26.264Z,11.12
2023-05-24T03:46:53.008Z,10.90
2023-05-24T03:49:19.556Z,10.36
2023-05-24T03:51:46.331Z,10.65
2023-05-24T03:54:13.046Z,10.01
2023-05-24T03:56:39.706Z,11.47
2023-05-24T03:59:06.320Z,11.41
2023-05-24T04:01:34.619Z,11.69
2023-05-24T04:04:02.115Z,11.16
2023-05-24T04:06:29.623Z,11.21
2023-05-24T04:08:57.466Z,11.11
2023-05-24T04:11:28.141Z,11.24
2023-05-24T04:14:00.318Z,11.45
2023-05-24T04:16:27.577Z,11.65
2023-05-24T04:18:57.813Z,11.36
2023-05-24T04:21:24.526Z,11.02
2023-05-24T04:23:51.120Z,10.56
2023-05-24T04:26:17.861Z,10.92
2023-05-24T04:28:45.655Z,10.59
2023-05-24T04:31:12.323Z,11.06
2023-05-24T04:33:42.392Z,10.85
2023-05-24T04:36:11.426Z,11.41
2023-05-24T04:38:38.857Z,11.30
2023-05-24T04:41:05.877Z,11.90
2023-05-24T04:43:34.688Z,12.08
2023-05-24T04:46:01.751Z,11.28
2023-05-24T04:48:28.518Z,11.50
2023-05-24T04:50:56.189Z,9.72
2023-05-24T04:53:23.238Z,11.75
2023-05-24T04:55:50.290Z,11.41
2023-05-24T04:58:17.346Z,11.09
2023-05-24T05:00:46.711Z,10.76
2023-05-24T05:03:13.726Z,11.20
2023-05-24T05:05:40.487Z,11.00
2023-05-24T05:08:07.133Z,11.10
2023-05-24T05:10:33.784Z,11.21
2023-05-24T05:13:00.443Z,10.79
2023-05-24T05:15:27.111Z,9.80
2023-05-24T05:17:53.944Z,10.37
2023-05-24T05:20:20.754Z,9.92
2023-05-24T05:22:59.797Z,10.46
2023-05-24T05:25:26.418Z,10.91
2023-05-24T05:27:53.083Z,11.08
2023-05-24T05:30:19.854Z,10.92
2023-05-24T05:32:46.673Z,10.56
2023-05-24T05:35:13.534Z,10.95
2023-05-24T05:37:40.137Z,9.83
2023-05-24T05:40:07.362Z,11.63
2023-05-24T05:42:34.262Z,11.29
2023-05-24T05:45:03.141Z,11.09
2023-05-24T05:47:29.877Z,10.85
2023-05-24T05:49:56.637Z,12.03
2023-05-24T05:52:23.505Z,11.93
2023-05-24T05:54:50.163Z,12.83
2023-05-24T05:57:19.646Z,12.84
2023-05-24T05:59:46.473Z,13.55
2023-05-24T06:02:13.158Z,11.74
2023-05-24T06:04:42.600Z,14.14
2023-05-24T06:07:09.252Z,14.80
2023-05-24T06:09:35.872Z,14.11
2023-05-24T06:12:02.685Z,11.81
2023-05-24T06:14:32.735Z,13.52
2023-05-24T06:17:00.266Z,13.40
2023-05-24T06:19:44.496Z,12.63
2023-05-24T06:22:12.682Z,13.41
2023-05-24T06:24:39.985Z,13.21
2023-05-24T06:27:06.700Z,14.19
2023-05-24T06:29:36.506Z,14.38
2023-05-24T06:32:03.443Z,14.29
2023-05-24T06:34:30.330Z,14.75
2023-05-24T06:36:58.234Z,14.71
2023-05-24T06:39:26.765Z,14.74
2023-05-24T06:41:53.907Z,14.86
2023-05-24T06:44:25.308Z,13.93
2023-05-24T06:46:52.122Z,13.40
2023-05-24T06:49:18.852Z,14.14
2023-05-24T06:51:47.039Z,12.21
2023-05-24T06:54:15.972Z,13.83
2023-05-24T06:56:50.100Z,15.06
2023-05-24T06:59:16.869Z,14.37
2023-05-24T07:01:43.944Z,15.41
2023-05-24T07:04:11.520Z,16.10
2023-05-24T07:06:39.406Z,14.50
2023-05-24T07:09:06.022Z,15.21
2023-05-24T07:11:32.729Z,15.65
2023-05-24T07:13:59.614Z,16.77
2023-05-24T07:16:26.326Z,16.90
2023-05-24T07:18:54.977Z,16.94
2023-05-24T07:21:21.584Z,16.73
2023-05-24T07:23:50.788Z,16.00
2023-05-24T07:26:18.060Z,16.91
2023-05-24T07:28:44.753Z,16.49
2023-05-24T07:31:12.643Z,17.82
2023-05-24T07:33:39.759Z,17.35
2023-05-24T07:36:07.287Z,17.49
2023-05-24T07:38:35.069Z,16.87
2023-05-24T07:41:06.266Z,17.37
2023-05-24T07:43:32.951Z,15.13
2023-05-24T07:46:05.590Z,17.83
2023-05-24T07:48:32.777Z,17.79
2023-05-24T07:50:59.363Z,18.41
2023-05-24T07:53:26.352Z,17.93
2023-05-24T07:55:53.059Z,18.01
2023-05-24T07:58:19.690Z,16.04
2023-05-24T08:00:55.870Z,17.53
2023-05-24T08:03:25.195Z,17.35
2023-05-24T08:05:52.267Z,16.68
2023-05-24T08:08:19.647Z,17.20
2023-05-24T08:10:46.546Z,16.48
2023-05-24T08:13:13.218Z,17.20
2023-05-24T08:15:39.920Z,17.85
2023-05-24T08:18:06.855Z,17.75
2023-05-24T08:20:36.665Z,16.75
2023-05-24T08:23:03.465Z,16.63
2023-05-24T08:25:30.102Z,18.11
2023-05-24T08:27:59.657Z,17.52
2023-05-24T08:30:26.324Z,17.47
2023-05-24T08:32:53.391Z,17.80
2023-05-24T08:35:23.018Z,18.54
2023-05-24T08:37:50.091Z,18.43
2023-05-24T08:40:17.446Z,19.01
2023-05-24T08:42:45.240Z,19.29
2023-05-24T08:45:13.114Z,17.37
2023-05-24T08:47:40.652Z,19.54
2023-05-24T08:50:08.605Z,20.70
2023-05-24T08:52:36.083Z,20.71
2023-05-24T08:55:05.575Z,21.21
2023-05-24T08:57:35.155Z,21.42
2023-05-24T09:00:02.092Z,21.41
2023-05-24T09:02:34.877Z,20.75
2023-05-24T09:05:02.114Z,21.60
2023-05-24T09:07:40.877Z,20.78
2023-05-24T09:10:09.345Z,20.47
2023-05-24T09:12:40.299Z,19.59
2023-05-24T09:15:08.618Z,19.93
2023-05-24T09:17:36.801Z,18.88
2023-05-24T09:20:07.105Z,18.93
2023-05-24T09:22:36.840Z,19.00
2023-05-24T09:25:06.262Z,18.59
2023-05-24T09:27:34.989Z,18.99
2023-05-24T09:30:04.780Z,18.10
2023-05-24T09:32:31.632Z,17.87
2023-05-24T09:35:08.276Z,16.91
2023-05-24T09:37:38.493Z,18.06
2023-05-24T09:40:18.572Z,17.05
2023-05-24T09:42:45.174Z,17.48
2023-05-24T09:45:12.660Z,19.97
2023-05-24T09:47:42.906Z,20.49
2023-05-24T09:50:13.774Z,20.70
2023-05-24T09:52:41.206Z,21.24
2023-05-24T09:55:18.526Z,21.58
2023-05-24T09:57:46.076Z,23.24
2023-05-24T10:00:22.701Z,23.28
2023-05-24T10:03:10.970Z,23.28
2023-05-24T10:05:39.209Z,22.98
2023-05-24T10:08:11.568Z,21.88
2023-05-24T10:10:38.211Z,20.54
2023-05-24T10:13:05.085Z,20.56
2023-05-24T10:15:31.704Z,19.68
2023-05-24T10:18:00.050Z,19.32
2023-05-24T10:20:27.012Z,17.80
2023-05-24T10:23:00.749Z,18.35
2023-05-24T10:25:28.551Z,19.04
2023-05-24T10:28:01.906Z,17.03
2023-05-24T10:30:48.354Z,18.21
2023-05-24T10:33:16.521Z,18.06
2023-05-24T10:35:43.990Z,18.91
2023-05-24T10:38:13.673Z,19.06
2023-05-24T10:40:42.096Z,20.64
2023-05-24T10:43:09.084Z,20.46
2023-05-24T10:45:42.068Z,21.39
2023-05-24T10:48:15.529Z,22.09
2023-05-24T10:50:43.624Z,21.96
2023-05-24T10:53:14.915Z,22.34
2023-05-24T10:55:58.061Z,22.50
2023-05-24T10:58:59.633Z,22.45
2023-05-24T11:01:31.935Z,22.62
2023-05-24T11:04:08.685Z,22.66
2023-05-24T11:06:50.593Z,22.56
2023-05-24T11:09:17.673Z,21.39
2023-05-24T11:11:45.951Z,21.80
2023-05-24T11:14:13.701Z,21.78
2023-05-24T11:16:40.761Z,21.80
2023-05-24T11:19:46.121Z,21.84
2023-05-24T11:22:14.978Z,20.84
2023-05-24T11:24:42.200Z,21.04
2023-05-24T11:27:11.467Z,21.38
2023-05-24T11:29:45.546Z,21.15
2023-05-24T11:32:17.133Z,21.13
2023-05-24T11:34:45.719Z,21.03
2023-05-24T11:37:14.538Z,21.44
2023-05-24T11:39:43.434Z,21.13
2023-05-24T11:42:13.224Z,19.99
2023-05-24T11:44:39.867Z,20.40
2023-05-24T11:47:07.825Z,19.17
2023-05-24T11:49:35.086Z,18.17
2023-05-24T11:52:02.712Z,18.99
2023-05-24T11:54:30.292Z,19.31
2023-05-24T11:56:57.458Z,19.42
2023-05-24T11:59:28.481Z,19.04
2023-05-24T12:02:00.491Z,19.40
2023-05-24T12:04:28.824Z,19.12
2023-05-24T12:06:55.942Z,18.00
2023-05-24T12:09:27.721Z,19.21
2023-05-24T12:11:54.691Z,19.01
2023-05-24T12:14:28.601Z,19.63
2023-05-24T12:16:56.486Z,18.66
2023-05-24T12:19:33.265Z,19.51
2023-05-24T12:22:01.124Z,19.19
2023-05-24T12:24:28.568Z,19.24
2023-05-24T12:27:01.791Z,19.01
2023-05-24T12:29:36.469Z,19.18
2023-05-24T12:32:04.113Z,19.33
2023-05-24T12:34:30.863Z,19.77
2023-05-24T12:36:57.862Z,19.75
2023-05-24T12:39:32.375Z,20.06
2023-05-24T12:42:03.243Z,20.46
2023-05-24T12:44:34.040Z,18.65
2023-05-24T12:47:02.217Z,18.71
2023-05-24T12:49:29.607Z,19.81
2023-05-24T12:51:57.241Z,19.91
2023-05-24T12:54:27.846Z,20.37
2023-05-24T12:56:57.028Z,20.63
2023-05-24T12:59:24.432Z,20.14
2023-05-24T13:01:52.126Z,20.13
2023-05-24T13:04:21.126Z,20.75
2023-05-24T13:06:48.245Z,20.15
2023-05-24T13:09:16.038Z,20.08
2023-05-24T13:11:42.765Z,20.12
2023-05-24T13:14:11.433Z,21.14
2023-05-24T13:16:38.099Z,20.71
2023-05-24T13:19:04.858Z,19.60
2023-05-24T13:21:31.470Z,20.70
2023-05-24T13:23:58.105Z,20.35
2023-05-24T13:26:24.674Z,18.20
2023-05-24T13:29:22.413Z,20.89
2023-05-24T13:31:41.447Z,21.64
2023-05-24T13:34:09.174Z,21.40
2023-05-24T13:36:36.297Z,22.69
2023-05-24T13:39:14.070Z,22.40
2023-05-24T13:41:48.337Z,23.08
2023-05-24T13:44:15.767Z,22.59
2023-05-24T13:46:43.053Z,21.61
2023-05-24T13:49:10.995Z,21.90
2023-05-24T13:51:38.430Z,20.37
2023-05-24T13:54:07.263Z,20.18
2023-05-24T13:56:34.608Z,20.36
2023-05-24T13:59:03.390Z,20.10
2023-05-24T14:01:31.088Z,20.56
2023-05-24T14:03:59.865Z,20.80
2023-05-24T14:06:26.488Z,18.77
2023-05-24T14:08:53.232Z,20.41
2023-05-24T14:11:20.087Z,20.32
2023-05-24T14:16:16.816Z,19.74
2023-05-24T14:18:43.699Z,20.88
2023-05-24T14:21:10.399Z,20.36
2023-05-24T14:23:37.012Z,20.00
2023-05-24T14:26:04.744Z,20.16
2023-05-24T14:28:31.358Z,20.52
2023-05-24T14:30:57.989Z,20.65
2023-05-24T14:33:24.678Z,20.03
2023-05-24T14:35:51.801Z,20.41
2023-05-24T14:38:19.704Z,20.62
2023-05-24T14:40:49.462Z,20.50
2023-05-24T14:43:16.294Z,20.93
2023-05-24T14:45:43.577Z,20.58
2023-05-24T14:48:20.961Z,21.41
2023-05-24T14:50:47.687Z,21.30
2023-05-24T14:53:15.298Z,22.33
2023-05-24T14:55:43.473Z,21.71
2023-05-24T14:58:12.196Z,22.49
2023-05-24T15:00:40.761Z,21.46
2023-05-24T15:03:08.137Z,22.67
2023-05-24T15:05:36.390Z,23.54
2023-05-24T15:08:03.392Z,23.73
2023-05-24T15:10:30.157Z,24.29
2023-05-24T15:12:56.866Z,23.61
2023-05-24T15:15:23.609Z,23.75
2023-05-24T15:17:50.322Z,23.38
2023-05-24T15:20:17.184Z,22.56
2023-05-24T15:22:44.160Z,23.13
2023-05-24T15:25:11.503Z,23.20
2023-05-24T15:27:38.161Z,23.06
2023-05-24T15:30:05.482Z,21.51
2023-05-24T15:32:32.082Z,21.84
2023-05-24T15:35:00.537Z,22.30
2023-05-24T15:37:27.423Z,22.24
2023-05-24T15:39:54.173Z,21.62
2023-05-24T15:42:21.739Z,22.44
2023-05-24T15:44:48.471Z,21.01
2023-05-24T15:47:15.489Z,22.22
2023-05-24T15:49:42.070Z,22.23
2023-05-24T15:52:09.468Z,20.60
2023-05-24T15:54:36.389Z,21.44
2023-05-24T15:57:03.034Z,21.64
2023-05-24T15:59:30.660Z,20.24
2023-05-24T16:01:57.380Z,22.23
2023-05-24T16:04:24.088Z,22.19
2023-05-24T16:06:50.970Z,21.79
2023-05-24T16:09:20.334Z,21.82
2023-05-24T16:11:48.908Z,21.71
2023-05-24T16:14:16.561Z,21.59
2023-05-24T16:16:43.958Z,20.26
2023-05-24T16:19:11.116Z,20.10
2023-05-24T16:21:38.146Z,19.89
2023-05-24T16:24:05.514Z,18.60
2023-05-24T16:26:32.471Z,20.52
2023-05-24T16:29:00.266Z,19.78
2023-05-24T16:31:26.939Z,20.18
2023-05-24T16:33:53.648Z,19.79
2023-05-24T16:36:21.257Z,19.08
2023-05-24T16:38:50.781Z,19.03
2023-05-24T16:41:19.395Z,18.74
2023-05-24T16:43:46.124Z,18.81
2023-05-24T16:46:12.967Z,18.95
2023-05-24T16:48:40.159Z,17.74
2023-05-24T16:51:06.942Z,19.11
2023-05-24T16:53:34.053Z,19.38
2023-05-24T16:56:00.812Z,18.49
2023-05-24T16:58:28.284Z,16.45
2023-05-24T17:00:54.948Z,18.47
2023-05-24T17:03:27.695Z,18.15
2023-05-24T17:05:56.685Z,18.64
2023-05-24T17:08:25.925Z,18.96
2023-05-24T17:10:56.327Z,18.28
2023-05-24T17:13:23.882Z,18.17
2023-05-24T17:15:52.191Z,17.77
2023-05-24T17:18:21.276Z,17.34
2023-05-24T17:20:48.130Z,18.24
2023-05-24T17:23:14.917Z,18.14
2023-05-24T17:25:41.494Z,17.55
2023-05-24T17:28:08.194Z,17.06
2023-05-24T17:30:34.983Z,17.15
2023-05-24T17:33:01.650Z,17.67
2023-05-24T17:35:28.366Z,17.93
2023-05-24T17:37:55.118Z,18.14
2023-05-24T17:40:21.755Z,17.08
2023-05-24T17:42:48.869Z,17.51
2023-05-24T17:45:15.545Z,15.63
2023-05-24T17:47:42.252Z,17.59
2023-05-24T17:50:10.609Z,18.14
2023-05-24T17:52:37.896Z,17.33
2023-05-24T17:55:04.865Z,18.28
2023-05-24T17:57:31.480Z,17.70
2023-05-24T17:59:58.239Z,17.60
2023-05-24T18:02:24.918Z,17.87
2023-05-24T18:04:52.759Z,17.88
2023-05-24T18:07:19.583Z,18.10
2023-05-24T18:09:48.385Z,17.89
2023-05-24T18:12:15.092Z,17.48
2023-05-24T18:14:42.413Z,18.45
2023-05-24T18:17:09.298Z,18.06
2023-05-24T18:19:35.952Z,17.86
2023-05-24T18:22:02.723Z,17.75
2023-05-24T18:24:29.432Z,16.09
2023-05-24T18:26:56.078Z,17.16
2023-05-24T18:29:22.828Z,17.14
2023-05-24T18:31:49.705Z,17.50
2023-05-24T18:34:19.270Z,18.11
2023-05-24T18:36:45.977Z,17.75
2023-05-24T18:39:12.617Z,16.12
2023-05-24T18:41:39.192Z,17.71
2023-05-24T18:44:06.004Z,17.79
2023-05-24T18:46:33.250Z,17.25
2023-05-24T18:49:01.787Z,17.47
2023-05-24T18:51:30.742Z,17.52
2023-05-24T18:53:57.416Z,16.85
2023-05-24T18:56:24.429Z,15.71
2023-05-24T18:58:52.063Z,17.11
2023-05-24T19:01:19.089Z,16.80
2023-05-24T19:03:45.779Z,17.20
2023-05-24T19:06:14.541Z,17.11
2023-05-24T19:08:41.462Z,17.07
2023-05-24T19:11:09.604Z,16.95
2023-05-24T19:13:36.246Z,17.19
2023-05-24T19:16:03.257Z,16.72
2023-05-24T19:18:29.989Z,17.22
2023-05-24T19:20:56.814Z,17.23
2023-05-24T19:23:23.535Z,16.87
2023-05-24T19:25:56.842Z,16.97
2023-05-24T19:28:24.223Z,16.46
2023-05-24T19:30:55.051Z,16.34
2023-05-24T19:33:21.691Z,16.73
2023-05-24T19:35:48.290Z,16.56
2023-05-24T19:38:17.676Z,16.64
2023-05-24T19:40:44.544Z,14.60
2023-05-24T19:43:11.209Z,14.17
2023-05-24T19:45:37.904Z,16.45
2023-05-24T19:48:06.942Z,16.81
2023-05-24T19:50:34.136Z,15.45
2023-05-24T19:53:00.862Z,16.81
2023-05-24T19:55:27.461Z,16.18
2023-05-24T19:57:53.987Z,16.57
2023-05-24T20:00:21.219Z,15.96
2023-05-24T20:02:47.951Z,16.30
2023-05-24T20:05:17.268Z,15.57
2023-05-24T20:07:49.784Z,16.26
2023-05-24T20:10:16.667Z,16.27
2023-05-24T20:12:43.537Z,14.31
2023-05-24T20:15:11.337Z,16.04
2023-05-24T20:17:37.926Z,16.17
2023-05-24T20:20:04.902Z,16.15
2023-05-24T20:22:31.573Z,16.20
2023-05-24T20:24:58.366Z,15.10
2023-05-24T20:27:25.022Z,15.76
2023-05-24T20:29:51.622Z,14.89
2023-05-24T20:32:21.404Z,15.85
2023-05-24T20:34:48.078Z,14.86
2023-05-24T20:37:14.677Z,16.05
2023-05-24T20:39:42.489Z,16.01
2023-05-24T20:42:09.034Z,15.36
2023-05-24T20:44:35.677Z,14.75
2023-05-24T20:47:02.352Z,15.34
2023-05-24T20:49:29.039Z,15.65
2023-05-24T20:51:55.754Z,15.41
2023-05-24T20:54:22.414Z,15.35
2023-05-24T20:56:48.984Z,15.19
2023-05-24T20:59:15.799Z,15.31
2023-05-24T21:01:42.519Z,15.35
2023-05-24T21:04:09.204Z,15.53
2023-05-24T21:06:36.087Z,15.63
2023-05-24T21:09:03.380Z,15.39
2023-05-24T21:11:30.454Z,15.61
2023-05-24T21:13:58.108Z,15.05
2023-05-24T21:16:25.165Z,15.69
2023-05-24T21:18:54.914Z,15.32
2023-05-24T21:21:23.235Z,15.16
2023-05-24T21:23:49.817Z,14.70
2023-05-24T21:26:16.436Z,15.27
2023-05-24T21:28:44.780Z,14.17
2023-05-24T21:31:14.410Z,15.38
2023-05-24T21:33:43.347Z,15.36
2023-05-24T21:36:10.633Z,14.84
2023-05-24T21:38:37.265Z,13.98
2023-05-24T21:41:05.168Z,14.41
2023-05-24T21:43:32.024Z,14.12
2023-05-24T21:45:58.768Z,14.59
2023-05-24T21:48:27.697Z,14.15
2023-05-24T21:50:54.310Z,12.08
2023-05-24T21:53:21.641Z,14.24
2023-05-24T21:55:48.626Z,14.77
2023-05-24T21:58:15.361Z,14.34
2023-05-24T22:00:42.024Z,14.63
2023-05-24T22:03:08.883Z,14.84
2023-05-24T22:05:36.624Z,13.40
2023-05-24T22:08:03.336Z,14.55
2023-05-24T22:10:31.421Z,14.66
2023-05-24T22:12:58.026Z,14.80
2023-05-24T22:15:24.671Z,14.55
2023-05-24T22:17:51.314Z,14.32
2023-05-24T22:20:20.807Z,14.53
2023-05-24T22:23:00.164Z,15.01
2023-05-24T22:25:26.860Z,14.74
2023-05-24T22:27:55.637Z,15.25
2023-05-24T22:30:22.306Z,14.93
2023-05-24T22:32:49.401Z,15.34
2023-05-24T22:35:16.268Z,14.65
2023-05-24T22:37:42.877Z,14.89
2023-05-24T22:40:09.786Z,14.95
2023-05-24T22:42:36.449Z,15.12
2023-05-24T22:45:03.489Z,14.57
2023-05-24T22:47:33.555Z,15.07
2023-05-24T22:50:02.097Z,13.61
2023-05-24T22:52:30.192Z,14.99
2023-05-24T22:54:56.839Z,15.32
2023-05-24T22:57:23.572Z,14.39
2023-05-24T22:59:50.191Z,14.75
2023-05-24T23:02:17.070Z,14.59
2023-05-24T23:04:47.341Z,13.78
2023-05-24T23:07:17.030Z,14.83
2023-05-24T23:09:43.838Z,14.70
2023-05-24T23:12:11.729Z,14.35
2023-05-24T23:14:46.527Z,14.30
2023-05-24T23:17:14.481Z,11.98
2023-05-24T23:19:42.618Z,14.21
2023-05-24T23:22:13.697Z,14.51
2023-05-24T23:24:50.137Z,14.31
2023-05-24T23:27:16.736Z,14.12
2023-05-24T23:29:45.557Z,14.15
2023-05-24T23:32:12.495Z,12.27
2023-05-24T23:34:39.224Z,14.61
2023-05-24T23:37:08.888Z,13.67
2023-05-24T23:39:35.725Z,13.58
2023-05-24T23:42:03.724Z,14.20
2023-05-24T23:44:30.784Z,13.58
2023-05-24T23:46:57.643Z,14.33
2023-05-24T23:49:24.890Z,14.32
2023-05-24T23:51:51.631Z,14.53
2023-05-24T23:54:19.363Z,14.18
2023-05-24T23:56:46.226Z,14.15
2023-05-24T23:59:13.038Z,14.36
